Detalii statie VALKAPA [00001D0A]

Toti senzorii

Date Temperatura solului [C]Precipitatii [mm]Voltaj baterie [mV]Leaf Wetness [Min]HC Air temperature [C]HC Relative humidity [%]Punctul de roua [C]
medieminmaxsumaultimatimpmedieminmaxmediemediemin
2020-01-25 15:00:00 0 7108 -2 -2.16 -1.86 100 -1.8 -2
2020-01-25 16:00:00 0 7010 -2.07 -2.34 -1.91 100 -1.9 -2.2
2020-01-25 17:00:00 0 6952 -2.34 -2.47 -2.29 100 -2.2 -2.3
2020-01-25 18:00:00 0 6932 -2.27 -2.35 -2.22 100 -2.1 -2.2
2020-01-25 19:00:00 0 6914 -2.28 -2.34 -2.21 100 -2.1 -2.2
2020-01-25 20:00:00 0 6894 -2.3 -2.38 -2.25 100 -2.1 -2.2
2020-01-25 21:00:00 0 6874 -2.45 -2.51 -2.38 100 -2.3 -2.4
2020-01-25 22:00:00 0 6864 -2.35 -2.41 -2.32 100 -2.2 -2.3
2020-01-25 23:00:00 0 6854 -2.26 -2.33 -2.22 100 -2.1 -2.2
2020-01-26 00:00:00 0 6864 -2.32 -2.38 -2.21 100 -2.1 -2.2
2020-01-26 01:00:00 0 6854 -2.32 -2.36 -2.29 100 -2.1 -2.2
2020-01-26 02:00:00 0 6854 -2.28 -2.33 -2.23 100 -2.1 -2.2
2020-01-26 03:00:00 0 6854 -2.29 -2.39 -2.26 100 -2.1 -2.2
2020-01-26 04:00:00 0 6854 -2.57 -2.78 -2.39 100 -2.4 -2.6
2020-01-26 05:00:00 0 6844 -2.7 -2.77 -2.62 100 -2.5 -2.6
2020-01-26 06:00:00 0 6844 -2.71 -2.8 -2.64 100 -2.5 -2.7
2020-01-26 07:00:00 0 6844 -2.68 -2.76 -2.62 100 -2.5 -2.6
2020-01-26 08:00:00 0 6854 -2.86 -2.94 -2.75 100 -2.7 -2.8
2020-01-26 09:00:00 0 6844 -2.98 -3.15 -2.85 100 -2.8 -3
2020-01-26 10:00:00 0 6864 -2.65 -2.82 -2.43 100 -2.5 -2.7
2020-01-26 11:00:00 0 6904 -2.04 -2.35 -1.71 100 -1.9 -2.2
2020-01-26 12:00:00 0 6922 -1.47 -1.77 -1.2 100 -1.3 -1.6
2020-01-26 13:00:00 0 6942 -1.07 -1.2 -0.9 100 -0.9 -1.1
2020-01-26 14:00:00 0 6962 -0.73 -0.95 -0.61 100 -0.5 -0.8
2020-01-26 15:00:00 0 6942 -0.49 -0.66 -0.41 100 -0.3 -0.5
2020-01-26 16:00:00 0 6904 -0.3 -0.39 -0.21 100 -0.1 -0.2
2020-01-26 17:00:00 0 6854 -0.21 -0.26 -0.18 100 0 -0.1
2020-01-26 18:00:00 0 6854 -0.3 -0.31 -0.28 100 -0.1 -0.2
2020-01-26 19:00:00 0 6844 -0.26 -0.31 -0.21 100 -0.1 -0.2
2020-01-26 20:00:00 0 6844 -0.19 -0.23 -0.17 100 0 -0.1
2020-01-26 21:00:00 0 6844 -0.13 -0.16 -0.11 100 0 0
2020-01-26 22:00:00 0 6844 -0.1 -0.13 -0.09 100 0 0
2020-01-26 23:00:00 0 6844 -0.05 -0.09 -0.02 99.99 0 0
2020-01-27 00:00:00 0 6844 -0.04 -0.13 0.05 99.95 0 0
2020-01-27 01:00:00 0 6834 -0.63 -0.87 -0.26 100 -0.4 -0.7
2020-01-27 02:00:00 0 6834 -0.88 -1.03 -0.71 100 -0.7 -0.9
2020-01-27 03:00:00 0 6834 -0.84 -1.17 -0.66 100 -0.7 -1
2020-01-27 04:00:00 0 6834 -0.44 -0.67 -0.27 100 -0.2 -0.5
2020-01-27 05:00:00 0 6834 -0.26 -0.38 -0.16 100 -0.1 -0.2
2020-01-27 06:00:00 0 6834 0.16 -0.08 0.31 99.97 0.1 0
2020-01-27 07:00:00 0 6834 0.23 -0.01 0.55 100 0.2 0
2020-01-27 08:00:00 0 6834 0.36 0.14 0.57 100 0.3 0.1
2020-01-27 09:00:00 0 6834 0.53 0.21 0.91 100 0.5 0.2
2020-01-27 10:00:00 0 6894 1.56 1.01 2.26 97.04 1 0.9
2020-01-27 11:00:00 0 6942 3.13 2.4 3.63 88.23 1.2 1
2020-01-27 12:00:00 0 6962 3.68 3.53 3.87 85.14 1.3 1.2
2020-01-27 13:00:00 0 6982 4.51 3.99 4.91 80.21 1.2 1.1
2020-01-27 14:00:00 0 6992 4.79 4.11 5.23 79.42 1.3 0.9